sensor_id;sensor_type;location;lat;lon;timestamp;pressure;altitude;pressure_sealevel;temperature;humidity
56582;BME280;42463;52.214;21.238;2023-05-29T00:00:19;100670.73;;;12.39;58.36
56582;BME280;42463;52.214;21.238;2023-05-29T00:02:46;100668.54;;;12.38;58.38
56582;BME280;42463;52.214;21.238;2023-05-29T00:04:51;100666.68;;;12.37;58.30
56582;BME280;42463;52.214;21.238;2023-05-29T00:06:58;100667.20;;;12.34;58.48
56582;BME280;42463;52.214;21.238;2023-05-29T00:09:03;100662.28;;;12.31;58.57
56582;BME280;42463;52.214;21.238;2023-05-29T00:11:09;100658.94;;;12.27;58.60
56582;BME280;42463;52.214;21.238;2023-05-29T00:13:14;100660.38;;;12.24;58.70
56582;BME280;42463;52.214;21.238;2023-05-29T00:15:21;100663.08;;;12.22;58.80
56582;BME280;42463;52.214;21.238;2023-05-29T00:17:27;100661.00;;;12.20;58.83
56582;BME280;42463;52.214;21.238;2023-05-29T00:19:33;100661.25;;;12.19;58.79
56582;BME280;42463;52.214;21.238;2023-05-29T00:21:39;100660.17;;;12.19;58.84
56582;BME280;42463;52.214;21.238;2023-05-29T00:23:45;100656.52;;;12.18;58.70
56582;BME280;42463;52.214;21.238;2023-05-29T00:25:51;100658.02;;;12.15;58.85
56582;BME280;42463;52.214;21.238;2023-05-29T00:27:56;100656.58;;;12.13;58.84
56582;BME280;42463;52.214;21.238;2023-05-29T00:30:03;100661.24;;;12.11;58.99
56582;BME280;42463;52.214;21.238;2023-05-29T00:32:09;100656.43;;;12.09;58.91
56582;BME280;42463;52.214;21.238;2023-05-29T00:34:15;100656.59;;;12.07;58.96
56582;BME280;42463;52.214;21.238;2023-05-29T00:36:20;100658.67;;;12.04;59.05
56582;BME280;42463;52.214;21.238;2023-05-29T00:38:26;100660.46;;;12.03;59.20
56582;BME280;42463;52.214;21.238;2023-05-29T00:40:31;100658.55;;;12.02;59.11
56582;BME280;42463;52.214;21.238;2023-05-29T00:42:37;100656.27;;;11.98;59.05
56582;BME280;42463;52.214;21.238;2023-05-29T00:44:43;100663.09;;;11.94;59.15
56582;BME280;42463;52.214;21.238;2023-05-29T00:46:50;100660.14;;;11.92;59.44
56582;BME280;42463;52.214;21.238;2023-05-29T00:48:57;100662.41;;;11.91;59.46
56582;BME280;42463;52.214;21.238;2023-05-29T00:51:03;100660.77;;;11.89;59.46
56582;BME280;42463;52.214;21.238;2023-05-29T00:53:09;100659.45;;;11.89;59.40
56582;BME280;42463;52.214;21.238;2023-05-29T00:55:15;100664.81;;;11.86;59.58
56582;BME280;42463;52.214;21.238;2023-05-29T00:57:21;100659.55;;;11.81;59.52
56582;BME280;42463;52.214;21.238;2023-05-29T00:59:27;100666.72;;;11.77;59.57
56582;BME280;42463;52.214;21.238;2023-05-29T01:01:44;100662.65;;;11.70;59.84
56582;BME280;42463;52.214;21.238;2023-05-29T01:03:51;100660.48;;;11.65;60.01
56582;BME280;42463;52.214;21.238;2023-05-29T01:05:57;100660.73;;;11.62;60.14
56582;BME280;42463;52.214;21.238;2023-05-29T01:08:03;100662.80;;;11.59;60.27
56582;BME280;42463;52.214;21.238;2023-05-29T01:10:10;100658.61;;;11.58;60.33
56582;BME280;42463;52.214;21.238;2023-05-29T01:12:30;100654.95;;;11.56;60.27
56582;BME280;42463;52.214;21.238;2023-05-29T01:14:48;100661.84;;;11.55;60.32
56582;BME280;42463;52.214;21.238;2023-05-29T01:17:10;100658.64;;;11.55;60.25
56582;BME280;42463;52.214;21.238;2023-05-29T01:19:27;100657.19;;;11.52;60.31
56582;BME280;42463;52.214;21.238;2023-05-29T01:21:47;100654.86;;;11.48;60.21
56582;BME280;42463;52.214;21.238;2023-05-29T01:24:04;100651.77;;;11.48;60.29
56582;BME280;42463;52.214;21.238;2023-05-29T01:29:00;100654.02;;;11.45;60.61
56582;BME280;42463;52.214;21.238;2023-05-29T01:31:06;100653.27;;;11.43;60.36
56582;BME280;42463;52.214;21.238;2023-05-29T01:33:12;100651.86;;;11.41;60.40
56582;BME280;42463;52.214;21.238;2023-05-29T01:35:18;100650.33;;;11.39;60.46
56582;BME280;42463;52.214;21.238;2023-05-29T01:37:23;100652.21;;;11.38;60.48
56582;BME280;42463;52.214;21.238;2023-05-29T01:39:30;100651.77;;;11.36;60.63
56582;BME280;42463;52.214;21.238;2023-05-29T01:41:36;100652.46;;;11.36;60.51
56582;BME280;42463;52.214;21.238;2023-05-29T01:43:45;100653.71;;;11.36;60.64
56582;BME280;42463;52.214;21.238;2023-05-29T01:45:51;100657.06;;;11.34;60.51
56582;BME280;42463;52.214;21.238;2023-05-29T01:47:57;100656.69;;;11.30;60.62
56582;BME280;42463;52.214;21.238;2023-05-29T01:50:05;100657.45;;;11.26;60.53
56582;BME280;42463;52.214;21.238;2023-05-29T01:52:12;100664.46;;;11.18;60.79
56582;BME280;42463;52.214;21.238;2023-05-29T01:54:17;100660.44;;;11.13;60.91
56582;BME280;42463;52.214;21.238;2023-05-29T01:56:23;100659.27;;;11.10;61.34
56582;BME280;42463;52.214;21.238;2023-05-29T01:58:31;100657.39;;;11.08;61.29
56582;BME280;42463;52.214;21.238;2023-05-29T02:00:37;100652.77;;;11.08;61.17
56582;BME280;42463;52.214;21.238;2023-05-29T02:02:44;100652.98;;;11.07;61.22
56582;BME280;42463;52.214;21.238;2023-05-29T02:04:50;100652.64;;;11.02;61.39
56582;BME280;42463;52.214;21.238;2023-05-29T02:06:56;100650.63;;;10.98;61.34
56582;BME280;42463;52.214;21.238;2023-05-29T02:09:02;100645.50;;;10.95;61.58
56582;BME280;42463;52.214;21.238;2023-05-29T02:11:08;100646.70;;;10.92;61.59
56582;BME280;42463;52.214;21.238;2023-05-29T02:13:13;100646.39;;;10.88;61.53
56582;BME280;42463;52.214;21.238;2023-05-29T02:15:19;100646.14;;;10.83;61.67
56582;BME280;42463;52.214;21.238;2023-05-29T02:17:25;100642.20;;;10.81;61.69
56582;BME280;42463;52.214;21.238;2023-05-29T02:19:31;100633.80;;;10.78;61.92
56582;BME280;42463;52.214;21.238;2023-05-29T02:21:39;100633.08;;;10.76;62.01
56582;BME280;42463;52.214;21.238;2023-05-29T02:23:45;100628.91;;;10.74;62.04
56582;BME280;42463;52.214;21.238;2023-05-29T02:25:51;100631.55;;;10.69;62.20
56582;BME280;42463;52.214;21.238;2023-05-29T02:27:56;100631.92;;;10.67;62.04
56582;BME280;42463;52.214;21.238;2023-05-29T02:30:02;100633.10;;;10.66;62.12
56582;BME280;42463;52.214;21.238;2023-05-29T02:32:09;100625.33;;;10.62;62.16
56582;BME280;42463;52.214;21.238;2023-05-29T02:34:15;100626.15;;;10.59;62.28
56582;BME280;42463;52.214;21.238;2023-05-29T02:36:20;100625.46;;;10.56;62.37
56582;BME280;42463;52.214;21.238;2023-05-29T02:38:26;100623.45;;;10.55;62.45
56582;BME280;42463;52.214;21.238;2023-05-29T02:40:31;100619.02;;;10.52;62.36
56582;BME280;42463;52.214;21.238;2023-05-29T02:42:37;100621.52;;;10.54;62.51
56582;BME280;42463;52.214;21.238;2023-05-29T02:44:42;100615.77;;;10.53;62.46
56582;BME280;42463;52.214;21.238;2023-05-29T02:46:48;100617.02;;;10.50;62.54
56582;BME280;42463;52.214;21.238;2023-05-29T02:48:53;100618.67;;;10.48;62.61
56582;BME280;42463;52.214;21.238;2023-05-29T02:50:59;100614.25;;;10.46;62.67
56582;BME280;42463;52.214;21.238;2023-05-29T02:53:04;100621.05;;;10.44;62.72
56582;BME280;42463;52.214;21.238;2023-05-29T02:55:10;100620.86;;;10.42;62.84
56582;BME280;42463;52.214;21.238;2023-05-29T02:57:16;100618.84;;;10.45;62.83
56582;BME280;42463;52.214;21.238;2023-05-29T02:59:21;100619.08;;;10.46;62.88
56582;BME280;42463;52.214;21.238;2023-05-29T03:01:28;100622.88;;;10.46;63.00
56582;BME280;42463;52.214;21.238;2023-05-29T03:03:34;100625.30;;;10.49;63.01
56582;BME280;42463;52.214;21.238;2023-05-29T03:05:39;100624.70;;;10.52;62.94
56582;BME280;42463;52.214;21.238;2023-05-29T03:07:45;100626.05;;;10.55;63.00
56582;BME280;42463;52.214;21.238;2023-05-29T03:09:50;100629.89;;;10.54;62.85
56582;BME280;42463;52.214;21.238;2023-05-29T03:11:56;100630.19;;;10.53;62.79
56582;BME280;42463;52.214;21.238;2023-05-29T03:14:02;100632.13;;;10.51;62.91
56582;BME280;42463;52.214;21.238;2023-05-29T03:16:07;100630.89;;;10.52;63.02
56582;BME280;42463;52.214;21.238;2023-05-29T03:18:14;100632.84;;;10.52;63.02
56582;BME280;42463;52.214;21.238;2023-05-29T03:20:20;100633.14;;;10.50;63.10
56582;BME280;42463;52.214;21.238;2023-05-29T03:22:26;100635.59;;;10.47;63.09
56582;BME280;42463;52.214;21.238;2023-05-29T03:24:32;100633.56;;;10.46;63.21
56582;BME280;42463;52.214;21.238;2023-05-29T03:26:39;100631.92;;;10.49;63.26
56582;BME280;42463;52.214;21.238;2023-05-29T03:28:45;100634.23;;;10.50;63.31
56582;BME280;42463;52.214;21.238;2023-05-29T03:30:50;100635.63;;;10.53;63.34
56582;BME280;42463;52.214;21.238;2023-05-29T03:32:57;100632.10;;;10.58;63.32
56582;BME280;42463;52.214;21.238;2023-05-29T03:35:17;100635.44;;;10.63;63.27
56582;BME280;42463;52.214;21.238;2023-05-29T03:37:22;100636.98;;;10.68;63.18
56582;BME280;42463;52.214;21.238;2023-05-29T03:39:28;100637.10;;;10.69;63.25
56582;BME280;42463;52.214;21.238;2023-05-29T03:41:35;100640.66;;;10.72;63.18
56582;BME280;42463;52.214;21.238;2023-05-29T03:43:40;100641.11;;;10.76;63.22
56582;BME280;42463;52.214;21.238;2023-05-29T03:45:46;100643.38;;;10.83;63.08
56582;BME280;42463;52.214;21.238;2023-05-29T03:47:51;100644.80;;;10.88;63.41
56582;BME280;42463;52.214;21.238;2023-05-29T03:49:57;100641.69;;;10.95;63.28
56582;BME280;42463;52.214;21.238;2023-05-29T03:52:03;100646.47;;;11.04;63.14
56582;BME280;42463;52.214;21.238;2023-05-29T03:54:08;100647.46;;;11.09;62.99
56582;BME280;42463;52.214;21.238;2023-05-29T03:56:14;100642.77;;;11.16;62.97
56582;BME280;42463;52.214;21.238;2023-05-29T03:58:20;100642.51;;;11.21;62.99
56582;BME280;42463;52.214;21.238;2023-05-29T04:00:26;100646.00;;;11.27;62.84
56582;BME280;42463;52.214;21.238;2023-05-29T04:02:34;100651.38;;;11.31;62.84
56582;BME280;42463;52.214;21.238;2023-05-29T04:04:41;100649.36;;;11.35;62.69
56582;BME280;42463;52.214;21.238;2023-05-29T04:06:47;100653.96;;;11.42;62.75
56582;BME280;42463;52.214;21.238;2023-05-29T04:08:52;100659.02;;;11.51;62.86
56582;BME280;42463;52.214;21.238;2023-05-29T04:10:58;100660.84;;;11.62;62.76
56582;BME280;42463;52.214;21.238;2023-05-29T04:13:03;100660.04;;;11.73;62.64
56582;BME280;42463;52.214;21.238;2023-05-29T04:15:11;100660.02;;;11.84;62.02
56582;BME280;42463;52.214;21.238;2023-05-29T04:17:16;100659.34;;;11.94;61.77
56582;BME280;42463;52.214;21.238;2023-05-29T04:19:22;100659.53;;;12.02;61.74
56582;BME280;42463;52.214;21.238;2023-05-29T04:21:27;100660.88;;;12.14;61.59
56582;BME280;42463;52.214;21.238;2023-05-29T04:23:33;100664.19;;;12.25;61.34
56582;BME280;42463;52.214;21.238;2023-05-29T04:25:38;100659.95;;;12.33;60.98
56582;BME280;42463;52.214;21.238;2023-05-29T04:27:44;100662.59;;;12.44;60.97
56582;BME280;42463;52.214;21.238;2023-05-29T04:29:53;100662.54;;;12.54;60.63
56582;BME280;42463;52.214;21.238;2023-05-29T04:32:00;100661.02;;;12.63;60.42
56582;BME280;42463;52.214;21.238;2023-05-29T04:34:07;100662.38;;;12.70;60.11
56582;BME280;42463;52.214;21.238;2023-05-29T04:36:13;100663.40;;;12.77;60.39
56582;BME280;42463;52.214;21.238;2023-05-29T04:38:19;100659.83;;;12.89;60.05
56582;BME280;42463;52.214;21.238;2023-05-29T04:40:29;100659.71;;;12.98;59.68
56582;BME280;42463;52.214;21.238;2023-05-29T04:42:36;100658.59;;;13.02;59.33
56582;BME280;42463;52.214;21.238;2023-05-29T04:44:43;100657.74;;;13.08;59.08
56582;BME280;42463;52.214;21.238;2023-05-29T04:46:49;100659.14;;;13.14;58.87
56582;BME280;42463;52.214;21.238;2023-05-29T04:48:56;100659.73;;;13.20;58.80
56582;BME280;42463;52.214;21.238;2023-05-29T04:51:01;100661.25;;;13.29;58.54
56582;BME280;42463;52.214;21.238;2023-05-29T04:53:08;100660.20;;;13.39;58.26
56582;BME280;42463;52.214;21.238;2023-05-29T04:55:13;100664.45;;;13.52;58.23
56582;BME280;42463;52.214;21.238;2023-05-29T04:57:20;100662.71;;;13.66;57.81
56582;BME280;42463;52.214;21.238;2023-05-29T04:59:26;100666.95;;;13.79;57.47
56582;BME280;42463;52.214;21.238;2023-05-29T05:01:32;100665.22;;;13.91;57.28
56582;BME280;42463;52.214;21.238;2023-05-29T05:03:38;100665.50;;;13.99;56.76
56582;BME280;42463;52.214;21.238;2023-05-29T05:05:43;100663.66;;;14.09;56.65
56582;BME280;42463;52.214;21.238;2023-05-29T05:07:49;100668.26;;;14.21;56.71
56582;BME280;42463;52.214;21.238;2023-05-29T05:09:54;100665.09;;;14.34;56.50
56582;BME280;42463;52.214;21.238;2023-05-29T05:12:05;100664.45;;;14.50;56.59
56582;BME280;42463;52.214;21.238;2023-05-29T05:14:11;100663.00;;;14.63;56.44
56582;BME280;42463;52.214;21.238;2023-05-29T05:16:16;100660.80;;;14.73;55.53
56582;BME280;42463;52.214;21.238;2023-05-29T05:18:22;100659.57;;;14.86;55.49
56582;BME280;42463;52.214;21.238;2023-05-29T05:20:46;100657.46;;;14.98;55.06
56582;BME280;42463;52.214;21.238;2023-05-29T05:22:51;100661.37;;;15.07;53.74
56582;BME280;42463;52.214;21.238;2023-05-29T05:24:57;100656.77;;;15.14;53.29
56582;BME280;42463;52.214;21.238;2023-05-29T05:27:04;100660.77;;;15.24;53.05
56582;BME280;42463;52.214;21.238;2023-05-29T05:29:10;100661.43;;;15.35;52.78
56582;BME280;42463;52.214;21.238;2023-05-29T05:31:17;100659.80;;;15.45;51.62
56582;BME280;42463;52.214;21.238;2023-05-29T05:33:23;100658.57;;;15.52;51.47
56582;BME280;42463;52.214;21.238;2023-05-29T05:35:29;100657.08;;;15.59;51.95
56582;BME280;42463;52.214;21.238;2023-05-29T05:37:35;100659.13;;;15.69;52.38
56582;BME280;42463;52.214;21.238;2023-05-29T05:39:41;100663.06;;;15.80;52.93
56582;BME280;42463;52.214;21.238;2023-05-29T05:41:47;100657.85;;;15.90;51.53
56582;BME280;42463;52.214;21.238;2023-05-29T05:43:58;100661.48;;;16.03;50.74
56582;BME280;42463;52.214;21.238;2023-05-29T05:46:12;100657.35;;;16.14;50.07
56582;BME280;42463;52.214;21.238;2023-05-29T05:48:20;100659.60;;;16.20;50.25
56582;BME280;42463;52.214;21.238;2023-05-29T05:50:25;100659.77;;;16.27;50.54
56582;BME280;42463;52.214;21.238;2023-05-29T05:52:31;100661.79;;;16.34;50.28
56582;BME280;42463;52.214;21.238;2023-05-29T05:54:38;100659.64;;;16.41;49.94
56582;BME280;42463;52.214;21.238;2023-05-29T05:56:43;100655.52;;;16.50;49.44
56582;BME280;42463;52.214;21.238;2023-05-29T05:58:51;100655.17;;;16.57;49.89
56582;BME280;42463;52.214;21.238;2023-05-29T06:00:57;100660.29;;;16.66;50.42
56582;BME280;42463;52.214;21.238;2023-05-29T06:03:04;100661.52;;;16.71;50.36
56582;BME280;42463;52.214;21.238;2023-05-29T06:05:24;100660.38;;;16.75;49.97
56582;BME280;42463;52.214;21.238;2023-05-29T06:07:29;100658.83;;;16.82;48.93
56582;BME280;42463;52.214;21.238;2023-05-29T06:09:36;100654.81;;;16.88;48.13
56582;BME280;42463;52.214;21.238;2023-05-29T06:11:42;100658.73;;;16.97;47.81
56582;BME280;42463;52.214;21.238;2023-05-29T06:13:48;100664.11;;;17.05;47.55
56582;BME280;42463;52.214;21.238;2023-05-29T06:15:58;100661.27;;;17.13;46.18
56582;BME280;42463;52.214;21.238;2023-05-29T06:18:06;100658.15;;;17.22;46.04
56582;BME280;42463;52.214;21.238;2023-05-29T06:20:12;100659.50;;;17.33;47.14
56582;BME280;42463;52.214;21.238;2023-05-29T06:22:18;100659.34;;;17.37;47.33
56582;BME280;42463;52.214;21.238;2023-05-29T06:24:24;100660.99;;;17.45;47.55
56582;BME280;42463;52.214;21.238;2023-05-29T06:26:29;100658.05;;;17.52;47.53
56582;BME280;42463;52.214;21.238;2023-05-29T06:28:35;100656.94;;;17.61;47.01
56582;BME280;42463;52.214;21.238;2023-05-29T06:30:41;100655.17;;;17.73;46.50
56582;BME280;42463;52.214;21.238;2023-05-29T06:32:46;100654.30;;;17.85;45.41
56582;BME280;42463;52.214;21.238;2023-05-29T06:34:53;100653.33;;;17.99;44.64
56582;BME280;42463;52.214;21.238;2023-05-29T06:36:59;100655.80;;;18.09;43.34
56582;BME280;42463;52.214;21.238;2023-05-29T06:39:05;100656.32;;;18.18;43.18
56582;BME280;42463;52.214;21.238;2023-05-29T06:41:10;100660.04;;;18.23;44.26
56582;BME280;42463;52.214;21.238;2023-05-29T06:43:16;100656.98;;;18.32;44.50
56582;BME280;42463;52.214;21.238;2023-05-29T06:45:25;100660.58;;;18.43;44.25
56582;BME280;42463;52.214;21.238;2023-05-29T06:47:34;100657.61;;;18.55;43.60
56582;BME280;42463;52.214;21.238;2023-05-29T06:49:39;100655.22;;;18.68;42.24
56582;BME280;42463;52.214;21.238;2023-05-29T06:51:45;100654.08;;;18.81;40.80
56582;BME280;42463;52.214;21.238;2023-05-29T06:54:21;100656.49;;;18.93;39.73
56582;BME280;42463;52.214;21.238;2023-05-29T06:56:27;100653.59;;;18.98;41.30
56582;BME280;42463;52.214;21.238;2023-05-29T06:58:35;100652.89;;;19.02;40.61
56582;BME280;42463;52.214;21.238;2023-05-29T07:03:51;100651.67;;;19.25;39.45
56582;BME280;42463;52.214;21.238;2023-05-29T07:05:56;100651.21;;;19.36;39.02
56582;BME280;42463;52.214;21.238;2023-05-29T07:08:02;100654.18;;;19.44;37.92
56582;BME280;42463;52.214;21.238;2023-05-29T07:10:08;100660.60;;;19.51;37.50
56582;BME280;42463;52.214;21.238;2023-05-29T07:12:15;100657.52;;;19.57;37.69
56582;BME280;42463;52.214;21.238;2023-05-29T07:14:21;100654.61;;;19.61;36.95
56582;BME280;42463;52.214;21.238;2023-05-29T07:16:26;100652.81;;;19.63;37.52
56582;BME280;42463;52.214;21.238;2023-05-29T07:18:36;100655.86;;;19.67;37.33
56582;BME280;42463;52.214;21.238;2023-05-29T07:20:41;100659.27;;;19.73;37.73
56582;BME280;42463;52.214;21.238;2023-05-29T07:22:49;100663.19;;;19.81;37.72
56582;BME280;42463;52.214;21.238;2023-05-29T07:24:55;100664.96;;;19.92;38.05
56582;BME280;42463;52.214;21.238;2023-05-29T07:27:01;100666.55;;;20.03;37.52
56582;BME280;42463;52.214;21.238;2023-05-29T07:29:06;100660.52;;;20.15;36.48
56582;BME280;42463;52.214;21.238;2023-05-29T07:31:12;100660.09;;;20.23;36.43
56582;BME280;42463;52.214;21.238;2023-05-29T07:33:18;100657.10;;;20.30;35.63
56582;BME280;42463;52.214;21.238;2023-05-29T07:35:24;100652.29;;;20.31;35.29
56582;BME280;42463;52.214;21.238;2023-05-29T07:37:30;100659.39;;;20.33;35.88
56582;BME280;42463;52.214;21.238;2023-05-29T07:39:36;100657.97;;;20.37;37.36
56582;BME280;42463;52.214;21.238;2023-05-29T07:41:48;100660.38;;;20.44;38.57
56582;BME280;42463;52.214;21.238;2023-05-29T07:43:56;100657.73;;;20.51;37.07
56582;BME280;42463;52.214;21.238;2023-05-29T07:46:02;100661.55;;;20.58;35.78
56582;BME280;42463;52.214;21.238;2023-05-29T07:48:08;100658.66;;;20.63;34.74
56582;BME280;42463;52.214;21.238;2023-05-29T07:50:15;100663.55;;;20.72;34.91
56582;BME280;42463;52.214;21.238;2023-05-29T07:52:20;100666.27;;;20.80;34.24
56582;BME280;42463;52.214;21.238;2023-05-29T07:54:27;100662.66;;;20.88;34.27
56582;BME280;42463;52.214;21.238;2023-05-29T07:56:33;100663.54;;;20.96;34.53
56582;BME280;42463;52.214;21.238;2023-05-29T07:58:40;100662.54;;;21.04;33.80
56582;BME280;42463;52.214;21.238;2023-05-29T08:00:46;100663.77;;;21.12;33.59
56582;BME280;42463;52.214;21.238;2023-05-29T08:02:52;100665.40;;;21.21;33.06
56582;BME280;42463;52.214;21.238;2023-05-29T08:05:10;100669.18;;;21.28;32.78
56582;BME280;42463;52.214;21.238;2023-05-29T08:07:17;100666.15;;;21.35;32.73
56582;BME280;42463;52.214;21.238;2023-05-29T08:09:23;100665.23;;;21.43;32.88
56582;BME280;42463;52.214;21.238;2023-05-29T08:11:29;100662.77;;;21.49;32.06
56582;BME280;42463;52.214;21.238;2023-05-29T08:13:35;100664.31;;;21.55;31.80
56582;BME280;42463;52.214;21.238;2023-05-29T08:15:40;100663.95;;;21.59;31.61
56582;BME280;42463;52.214;21.238;2023-05-29T08:17:46;100661.84;;;21.54;30.78
56582;BME280;42463;52.214;21.238;2023-05-29T08:19:53;100665.95;;;21.50;31.47
56582;BME280;42463;52.214;21.238;2023-05-29T08:21:58;100663.17;;;21.52;31.78
56582;BME280;42463;52.214;21.238;2023-05-29T08:24:04;100659.29;;;21.60;32.06
56582;BME280;42463;52.214;21.238;2023-05-29T08:26:10;100657.70;;;21.68;32.53
56582;BME280;42463;52.214;21.238;2023-05-29T08:28:16;100657.04;;;21.78;32.32
56582;BME280;42463;52.214;21.238;2023-05-29T08:30:22;100659.13;;;21.84;32.05
56582;BME280;42463;52.214;21.238;2023-05-29T08:32:27;100662.30;;;21.85;31.55
56582;BME280;42463;52.214;21.238;2023-05-29T08:34:33;100659.54;;;21.87;31.79
56582;BME280;42463;52.214;21.238;2023-05-29T08:36:38;100660.16;;;21.90;31.51
56582;BME280;42463;52.214;21.238;2023-05-29T08:38:45;100659.13;;;21.93;31.11
56582;BME280;42463;52.214;21.238;2023-05-29T08:40:51;100663.28;;;21.96;30.73
56582;BME280;42463;52.214;21.238;2023-05-29T08:42:59;100665.10;;;22.00;30.70
56582;BME280;42463;52.214;21.238;2023-05-29T08:45:10;100663.16;;;22.02;31.18
56582;BME280;42463;52.214;21.238;2023-05-29T08:47:18;100667.84;;;22.06;30.88
56582;BME280;42463;52.214;21.238;2023-05-29T08:49:25;100669.56;;;22.07;30.81
56582;BME280;42463;52.214;21.238;2023-05-29T08:51:37;100668.26;;;22.06;30.89
56582;BME280;42463;52.214;21.238;2023-05-29T08:53:47;100668.65;;;22.06;31.06
56582;BME280;42463;52.214;21.238;2023-05-29T08:55:53;100667.05;;;22.07;31.02
56582;BME280;42463;52.214;21.238;2023-05-29T08:58:00;100663.89;;;22.09;31.17
56582;BME280;42463;52.214;21.238;2023-05-29T09:00:09;100663.96;;;22.09;30.21
56582;BME280;42463;52.214;21.238;2023-05-29T09:02:16;100659.67;;;22.10;30.58
56582;BME280;42463;52.214;21.238;2023-05-29T09:04:22;100656.58;;;22.17;30.85
56582;BME280;42463;52.214;21.238;2023-05-29T09:06:28;100657.45;;;22.24;30.83
56582;BME280;42463;52.214;21.238;2023-05-29T09:08:34;100655.86;;;22.25;29.83
56582;BME280;42463;52.214;21.238;2023-05-29T09:10:40;100653.48;;;22.22;29.86
56582;BME280;42463;52.214;21.238;2023-05-29T09:12:45;100649.45;;;22.20;30.52
56582;BME280;42463;52.214;21.238;2023-05-29T09:14:52;100649.98;;;22.27;30.57
56582;BME280;42463;52.214;21.238;2023-05-29T09:16:57;100651.48;;;22.32;30.20
56582;BME280;42463;52.214;21.238;2023-05-29T09:19:08;100642.29;;;22.38;30.51
56582;BME280;42463;52.214;21.238;2023-05-29T09:21:26;100643.63;;;22.45;30.26
56582;BME280;42463;52.214;21.238;2023-05-29T09:23:32;100641.20;;;22.51;30.27
56582;BME280;42463;52.214;21.238;2023-05-29T09:25:41;100643.92;;;22.61;30.76
56582;BME280;42463;52.214;21.238;2023-05-29T09:27:47;100642.72;;;22.68;30.46
56582;BME280;42463;52.214;21.238;2023-05-29T09:29:53;100639.31;;;22.75;30.17
56582;BME280;42463;52.214;21.238;2023-05-29T09:31:58;100641.33;;;22.85;29.94
56582;BME280;42463;52.214;21.238;2023-05-29T09:34:04;100647.20;;;22.92;29.75
56582;BME280;42463;52.214;21.238;2023-05-29T09:36:20;100642.69;;;22.96;29.49
56582;BME280;42463;52.214;21.238;2023-05-29T09:38:27;100640.08;;;22.99;29.98
56582;BME280;42463;52.214;21.238;2023-05-29T09:40:36;100639.74;;;23.07;30.18
56582;BME280;42463;52.214;21.238;2023-05-29T09:42:42;100634.95;;;23.15;29.83
56582;BME280;42463;52.214;21.238;2023-05-29T09:44:50;100634.20;;;23.22;29.32
56582;BME280;42463;52.214;21.238;2023-05-29T09:47:00;100635.67;;;23.25;29.62
56582;BME280;42463;52.214;21.238;2023-05-29T09:49:09;100635.60;;;23.31;29.51
56582;BME280;42463;52.214;21.238;2023-05-29T09:51:22;100634.32;;;23.39;29.39
56582;BME280;42463;52.214;21.238;2023-05-29T09:53:28;100628.99;;;23.48;29.06
56582;BME280;42463;52.214;21.238;2023-05-29T09:55:34;100629.55;;;23.52;28.61
56582;BME280;42463;52.214;21.238;2023-05-29T09:57:41;100628.91;;;23.60;28.86
56582;BME280;42463;52.214;21.238;2023-05-29T09:59:47;100625.01;;;23.67;29.11
56582;BME280;42463;52.214;21.238;2023-05-29T10:02:03;100619.55;;;23.69;28.08
56582;BME280;42463;52.214;21.238;2023-05-29T10:04:11;100620.17;;;23.69;28.37
56582;BME280;42463;52.214;21.238;2023-05-29T10:06:19;100622.61;;;23.69;28.32
56582;BME280;42463;52.214;21.238;2023-05-29T10:08:26;100621.51;;;23.69;28.54
56582;BME280;42463;52.214;21.238;2023-05-29T10:10:35;100619.13;;;23.69;28.47
56582;BME280;42463;52.214;21.238;2023-05-29T10:12:48;100620.95;;;23.75;28.84
56582;BME280;42463;52.214;21.238;2023-05-29T10:14:56;100617.73;;;23.77;28.08
56582;BME280;42463;52.214;21.238;2023-05-29T10:17:05;100617.59;;;23.78;29.54
56582;BME280;42463;52.214;21.238;2023-05-29T10:19:15;100619.90;;;23.87;28.62
56582;BME280;42463;52.214;21.238;2023-05-29T10:21:24;100617.38;;;23.95;28.55
56582;BME280;42463;52.214;21.238;2023-05-29T10:23:31;100615.82;;;24.02;27.99
56582;BME280;42463;52.214;21.238;2023-05-29T10:25:40;100620.27;;;24.05;27.85
56582;BME280;42463;52.214;21.238;2023-05-29T10:27:48;100615.25;;;24.04;27.51
56582;BME280;42463;52.214;21.238;2023-05-29T10:29:58;100612.98;;;24.05;28.23
56582;BME280;42463;52.214;21.238;2023-05-29T10:32:20;100612.04;;;24.13;28.11
56582;BME280;42463;52.214;21.238;2023-05-29T10:34:30;100611.98;;;24.23;27.83
56582;BME280;42463;52.214;21.238;2023-05-29T10:36:40;100609.73;;;24.26;27.75
56582;BME280;42463;52.214;21.238;2023-05-29T10:38:48;100605.23;;;24.31;27.87
56582;BME280;42463;52.214;21.238;2023-05-29T10:40:54;100604.71;;;24.34;27.42
56582;BME280;42463;52.214;21.238;2023-05-29T10:42:59;100604.36;;;24.37;27.36
56582;BME280;42463;52.214;21.238;2023-05-29T10:45:06;100604.56;;;24.45;27.44
56582;BME280;42463;52.214;21.238;2023-05-29T10:47:11;100609.09;;;24.55;27.55
56582;BME280;42463;52.214;21.238;2023-05-29T10:49:18;100609.48;;;24.59;27.09
56582;BME280;42463;52.214;21.238;2023-05-29T10:51:27;100610.22;;;24.67;27.35
56582;BME280;42463;52.214;21.238;2023-05-29T10:53:33;100605.67;;;24.73;26.46
56582;BME280;42463;52.214;21.238;2023-05-29T10:55:39;100601.71;;;24.71;26.47
56582;BME280;42463;52.214;21.238;2023-05-29T10:57:48;100602.41;;;24.72;26.78
56582;BME280;42463;52.214;21.238;2023-05-29T11:00:03;100597.80;;;24.81;27.18
56582;BME280;42463;52.214;21.238;2023-05-29T11:02:11;100593.23;;;24.92;26.73